Метарчики

    Kwispel

    Летучий галландец
    Январский шторм. Машину с дороги сносит.
    Как вам такие METAR?

    METAR EHAM 181325Z 24044G60KT 9000 FEW012 SCT014 BKN017 14/11 Q0981
    TEMPO 4000=

    SA181325 EHMG
    METAR EHMG 181325Z AUTO 25052G62KT //// // ///////// 11/09 Q0972
    RE//=

    ZCZC
    SA181325 EHFD
    METAR EHFD 181325Z AUTO 26049G59KT 9999NDV 09/06 Q0969=
     

    Ptica

    Старожил
    :eek:
    У вас тоже? Я думал, только в Германии.
     

    Kwispel

    Летучий галландец
    FW, у нас сегодня никто быстрее 90 не ехал.
    Поезда не ходят вааще нигде.
    А2 Амстердам-Утрехт закрыта в обоих направлениях
    В городе такое вот творилось:

    strm_1839391g.jpg


    SchadeStadhuisAlme_1839311g.jpg


    boom6_1839071b.jpg
     

    Kwispel

    Летучий галландец
    вот вам и глобальное потепление - вжисть такого шторма здесь не видел

    9d4dab9872bda77114b5ba7ddb62c27065268.jpg


    55c064a8d47511e7f02896f95efaec0786239.jpg


    62d3248b81216b6a46fd2ad56abec19486507.jpg


    846cf25d5f463e3b04e1760a2cfe918693525.jpg


    6519563181b597b23385469f7c4302a155526.jpg
     

    Kwispel

    Летучий галландец
    Идет вторая волна:

    FC181500 EHKD
    TAF EHKD 181445Z 181601 24040G55KT 9999 SCT015 SCT020
    TEMPO 1621 27045G60KT 2500 SHRA TSRA SCT008 SCT015CB
    BKN020 BECMG 2123 27025G35KT=

    В Схипхоле самолеты тоже развернуты на юго-запад
     

    Kwispel

    Летучий галландец
    Цитата из новостей: "The planes landing at Schiphol yesterday looked like drunk geese "
     

    vm

    фрапессор
    FW сказал(а):
    ... Больше 160 ни кто не разгоняется, просто опасно.

    гы-ы-ы-ы.. :D Щас Коля расскажет, что такое по новосибирским дорогам сейчас разогнаться до 160-ти :)
     

    тип

    джедай
    FW, а у вас хоть кто-нибудь на шипах ездит? То-то же! :) У нас тут по ТВ штатовские ролики про скользкие дороги показывали надысь — супруга смотрела краем глаза, потом спрашивала, почему у них так бухают жестоко? :)

    Качания фур от ветра фигня, супротив мотания фур при перестроении их из одной ледяной колеии в другую на скорости. Дороги в этом году посыпают мало и чистят просто отвратительно (а местами совсем не чистят — у меня под окнами улицу НИ РАЗУ ***ОРЫ не почистили - едешь и бампером сугроб между колеями срубаешь). Учитывая 20% прирост количества автомобилей за крайний год — такая амба, что я уж лучше на липучках по автобану скользкому поездил бы :)
     

    Kwispel

    Летучий галландец
    тип, шипованная резина у нас запрещена. По льду и снегу в горах цепи одевают
     

    тип

    джедай
    FW, у меня хороший приятель работает полицейским в Висбадене — он рассказывал, что у вас на автобанах после 130 км/ч страховка перестает действовать — по-моему шикарный способ регулирования скорости. Равно как у нас за превышение более чем на 60 км/ч права отбирают, поэтому больше чем на 50 я не превышаю :)

    То что шипы запрещены в Европе — это я в курсе. Разумная мера для Европы, хотя вот финики дороги до асфальта не вычищают, а как же приятно ездить по накатанному снегу на шиппах — и тихо, и сцепление отличное... У нас же шипы — необходимость, ведь "липучка" все же не обеспечивает должного сцепления.